sensor_id;sensor_type;location;lat;lon;timestamp;pressure;altitude;pressure_sealevel;temperature;humidity
59055;BME280;44845;51.444;7.460;2024-03-17T00:01:01;100508.38;;;6.70;72.40
59055;BME280;44845;51.444;7.460;2024-03-17T00:03:27;100504.94;;;6.73;73.09
59055;BME280;44845;51.444;7.460;2024-03-17T00:06:00;100507.56;;;6.73;73.40
59055;BME280;44845;51.444;7.460;2024-03-17T00:08:25;100506.75;;;6.77;72.88
59055;BME280;44845;51.444;7.460;2024-03-17T00:10:52;100515.41;;;6.76;73.11
59055;BME280;44845;51.444;7.460;2024-03-17T00:13:18;100509.41;;;6.80;73.33
59055;BME280;44845;51.444;7.460;2024-03-17T00:15:43;100504.03;;;6.71;73.40
59055;BME280;44845;51.444;7.460;2024-03-17T00:18:10;100503.25;;;6.75;72.91
59055;BME280;44845;51.444;7.460;2024-03-17T00:20:36;100506.53;;;6.64;74.07
59055;BME280;44845;51.444;7.460;2024-03-17T00:23:02;100501.03;;;6.49;73.99
59055;BME280;44845;51.444;7.460;2024-03-17T00:25:27;100506.44;;;6.61;74.36
59055;BME280;44845;51.444;7.460;2024-03-17T00:27:52;100493.88;;;6.38;74.67
59055;BME280;44845;51.444;7.460;2024-03-17T00:30:20;100493.41;;;6.60;74.17
59055;BME280;44845;51.444;7.460;2024-03-17T00:32:46;100491.75;;;6.63;73.94
59055;BME280;44845;51.444;7.460;2024-03-17T00:35:12;100490.72;;;6.55;73.39
59055;BME280;44845;51.444;7.460;2024-03-17T00:37:39;100493.31;;;6.55;73.37
59055;BME280;44845;51.444;7.460;2024-03-17T00:40:05;100492.50;;;6.59;73.50
59055;BME280;44845;51.444;7.460;2024-03-17T00:42:31;100483.94;;;6.63;72.79
59055;BME280;44845;51.444;7.460;2024-03-17T00:44:59;100495.91;;;6.53;72.35
59055;BME280;44845;51.444;7.460;2024-03-17T00:47:27;100485.25;;;6.42;73.15
59055;BME280;44845;51.444;7.460;2024-03-17T00:49:53;100485.91;;;6.32;73.65
59055;BME280;44845;51.444;7.460;2024-03-17T00:52:18;100477.63;;;6.52;73.13
59055;BME280;44845;51.444;7.460;2024-03-17T00:54:46;100471.50;;;6.50;73.42
59055;BME280;44845;51.444;7.460;2024-03-17T00:57:12;100475.72;;;6.43;74.00
59055;BME280;44845;51.444;7.460;2024-03-17T00:59:40;100469.56;;;6.39;73.57
59055;BME280;44845;51.444;7.460;2024-03-17T01:02:05;100466.19;;;6.44;73.87
59055;BME280;44845;51.444;7.460;2024-03-17T01:04:31;100461.06;;;6.50;73.47
59055;BME280;44845;51.444;7.460;2024-03-17T01:06:59;100465.22;;;6.40;73.75
59055;BME280;44845;51.444;7.460;2024-03-17T01:09:24;100458.78;;;6.21;74.27
59055;BME280;44845;51.444;7.460;2024-03-17T01:11:50;100457.22;;;6.29;73.51
59055;BME280;44845;51.444;7.460;2024-03-17T01:14:15;100450.41;;;6.37;74.06
59055;BME280;44845;51.444;7.460;2024-03-17T01:16:40;100457.41;;;6.38;73.95
59055;BME280;44845;51.444;7.460;2024-03-17T01:19:06;100455.38;;;6.23;74.23
59055;BME280;44845;51.444;7.460;2024-03-17T01:21:31;100448.84;;;6.46;72.83
59055;BME280;44845;51.444;7.460;2024-03-17T01:23:57;100444.28;;;6.34;73.20
59055;BME280;44845;51.444;7.460;2024-03-17T01:26:23;100442.41;;;6.26;72.39
59055;BME280;44845;51.444;7.460;2024-03-17T01:28:49;100443.34;;;6.30;72.83
59055;BME280;44845;51.444;7.460;2024-03-17T01:31:15;100442.31;;;6.22;72.89
59055;BME280;44845;51.444;7.460;2024-03-17T01:33:40;100444.84;;;6.17;73.05
59055;BME280;44845;51.444;7.460;2024-03-17T01:36:06;100443.16;;;6.21;72.34
59055;BME280;44845;51.444;7.460;2024-03-17T01:38:31;100445.84;;;6.24;72.34
59055;BME280;44845;51.444;7.460;2024-03-17T01:40:58;100432.84;;;6.27;72.08
59055;BME280;44845;51.444;7.460;2024-03-17T01:43:23;100435.28;;;6.17;71.93
59055;BME280;44845;51.444;7.460;2024-03-17T01:45:48;100436.31;;;6.26;71.66
59055;BME280;44845;51.444;7.460;2024-03-17T01:48:15;100427.34;;;6.11;72.40
59055;BME280;44845;51.444;7.460;2024-03-17T01:50:42;100429.75;;;6.03;72.66
59055;BME280;44845;51.444;7.460;2024-03-17T01:53:09;100428.94;;;6.04;71.98
59055;BME280;44845;51.444;7.460;2024-03-17T01:55:37;100434.44;;;6.18;71.42
59055;BME280;44845;51.444;7.460;2024-03-17T01:58:04;100436.06;;;6.13;71.36
59055;BME280;44845;51.444;7.460;2024-03-17T02:00:33;100437.38;;;5.92;72.53
59055;BME280;44845;51.444;7.460;2024-03-17T02:02:59;100429.75;;;6.03;72.57
59055;BME280;44845;51.444;7.460;2024-03-17T02:05:25;100428.88;;;6.03;72.68
59055;BME280;44845;51.444;7.460;2024-03-17T02:07:50;100431.38;;;5.96;72.33
59055;BME280;44845;51.444;7.460;2024-03-17T02:10:15;100429.69;;;6.00;72.92
59055;BME280;44845;51.444;7.460;2024-03-17T02:12:41;100429.69;;;5.99;72.64
59055;BME280;44845;51.444;7.460;2024-03-17T02:15:06;100425.00;;;5.82;72.92
59055;BME280;44845;51.444;7.460;2024-03-17T02:17:33;100430.16;;;5.80;72.92
59055;BME280;44845;51.444;7.460;2024-03-17T02:19:58;100424.38;;;5.94;72.81
59055;BME280;44845;51.444;7.460;2024-03-17T02:22:24;100423.94;;;5.72;73.44
59055;BME280;44845;51.444;7.460;2024-03-17T02:24:49;100418.84;;;5.78;73.06
59055;BME280;44845;51.444;7.460;2024-03-17T02:27:15;100425.72;;;5.74;73.33
59055;BME280;44845;51.444;7.460;2024-03-17T02:29:40;100422.41;;;5.82;73.36
59055;BME280;44845;51.444;7.460;2024-03-17T02:32:06;100418.81;;;5.77;72.96
59055;BME280;44845;51.444;7.460;2024-03-17T02:34:36;100423.31;;;5.84;72.69
59055;BME280;44845;51.444;7.460;2024-03-17T02:37:03;100414.69;;;5.88;72.33
59055;BME280;44845;51.444;7.460;2024-03-17T02:39:30;100414.69;;;5.88;72.32
59055;BME280;44845;51.444;7.460;2024-03-17T02:42:06;100417.16;;;5.80;72.76
59055;BME280;44845;51.444;7.460;2024-03-17T02:44:32;100411.94;;;5.80;72.63
59055;BME280;44845;51.444;7.460;2024-03-17T02:47:01;100413.53;;;5.72;73.15
59055;BME280;44845;51.444;7.460;2024-03-17T02:49:28;100411.94;;;5.80;72.56
59055;BME280;44845;51.444;7.460;2024-03-17T02:52:00;100407.53;;;5.76;73.15
59055;BME280;44845;51.444;7.460;2024-03-17T02:54:26;100414.59;;;5.82;72.24
59055;BME280;44845;51.444;7.460;2024-03-17T02:56:51;100404.19;;;5.82;72.46
59055;BME280;44845;51.444;7.460;2024-03-17T02:59:16;100410.09;;;5.74;72.80
59055;BME280;44845;51.444;7.460;2024-03-17T03:01:42;100407.53;;;5.78;72.78
59055;BME280;44845;51.444;7.460;2024-03-17T03:04:08;100411.19;;;5.86;72.12
59055;BME280;44845;51.444;7.460;2024-03-17T03:06:33;100417.50;;;5.56;73.13
59055;BME280;44845;51.444;7.460;2024-03-17T03:08:59;100408.97;;;5.63;73.34
59055;BME280;44845;51.444;7.460;2024-03-17T03:11:24;100415.84;;;5.59;73.55
59055;BME280;44845;51.444;7.460;2024-03-17T03:13:50;100416.75;;;5.60;73.67
59055;BME280;44845;51.444;7.460;2024-03-17T03:16:15;100413.19;;;5.56;73.91
59055;BME280;44845;51.444;7.460;2024-03-17T03:18:41;100414.13;;;5.60;73.75
59055;BME280;44845;51.444;7.460;2024-03-17T03:21:07;100421.03;;;5.58;74.29
59055;BME280;44845;51.444;7.460;2024-03-17T03:23:33;100413.09;;;5.53;74.13
59055;BME280;44845;51.444;7.460;2024-03-17T03:26:00;100411.56;;;5.63;73.88
59055;BME280;44845;51.444;7.460;2024-03-17T03:28:28;100413.22;;;5.58;73.93
59055;BME280;44845;51.444;7.460;2024-03-17T03:30:54;100410.41;;;5.48;74.11
59055;BME280;44845;51.444;7.460;2024-03-17T03:33:20;100400.69;;;5.41;74.76
59055;BME280;44845;51.444;7.460;2024-03-17T03:35:45;100398.97;;;5.41;75.65
59055;BME280;44845;51.444;7.460;2024-03-17T03:38:12;100400.94;;;5.50;74.86
59055;BME280;44845;51.444;7.460;2024-03-17T03:40:39;100396.47;;;5.46;74.77
59055;BME280;44845;51.444;7.460;2024-03-17T03:43:04;100395.47;;;5.39;75.19
59055;BME280;44845;51.444;7.460;2024-03-17T03:45:29;100398.19;;;5.44;75.66
59055;BME280;44845;51.444;7.460;2024-03-17T03:47:55;100400.06;;;5.51;75.40
59055;BME280;44845;51.444;7.460;2024-03-17T03:50:21;100394.66;;;5.42;75.81
59055;BME280;44845;51.444;7.460;2024-03-17T03:52:47;100390.84;;;5.26;76.29
59055;BME280;44845;51.444;7.460;2024-03-17T03:55:12;100397.81;;;5.28;76.68
59055;BME280;44845;51.444;7.460;2024-03-17T03:57:40;100392.03;;;5.40;76.65
59055;BME280;44845;51.444;7.460;2024-03-17T04:00:07;100392.97;;;5.44;76.13
59055;BME280;44845;51.444;7.460;2024-03-17T04:02:39;100395.28;;;5.30;76.02
59055;BME280;44845;51.444;7.460;2024-03-17T04:05:05;100403.09;;;5.32;75.99
59055;BME280;44845;51.444;7.460;2024-03-17T04:07:30;100401.78;;;5.11;76.84
59055;BME280;44845;51.444;7.460;2024-03-17T04:09:55;100400.91;;;5.12;76.48
59055;BME280;44845;51.444;7.460;2024-03-17T04:12:21;100402.13;;;5.26;76.16
59055;BME280;44845;51.444;7.460;2024-03-17T04:14:46;100402.28;;;5.33;75.69
59055;BME280;44845;51.444;7.460;2024-03-17T04:17:17;100402.19;;;5.29;75.63
59055;BME280;44845;51.444;7.460;2024-03-17T04:19:42;100403.09;;;5.32;75.68
59055;BME280;44845;51.444;7.460;2024-03-17T04:22:08;100408.22;;;5.28;76.00
59055;BME280;44845;51.444;7.460;2024-03-17T04:24:33;100402.97;;;5.25;76.08
59055;BME280;44845;51.444;7.460;2024-03-17T04:26:58;100397.59;;;5.17;76.48
59055;BME280;44845;51.444;7.460;2024-03-17T04:29:24;100400.09;;;5.14;76.73
59055;BME280;44845;51.444;7.460;2024-03-17T04:31:50;100400.38;;;5.25;76.74
59055;BME280;44845;51.444;7.460;2024-03-17T04:34:15;100401.13;;;5.21;76.69
59055;BME280;44845;51.444;7.460;2024-03-17T04:36:41;100390.69;;;5.20;77.56
59055;BME280;44845;51.444;7.460;2024-03-17T04:39:06;100384.66;;;5.21;77.93
59055;BME280;44845;51.444;7.460;2024-03-17T04:41:33;100388.03;;;5.16;78.19
59055;BME280;44845;51.444;7.460;2024-03-17T04:43:59;100389.00;;;5.22;77.55
59055;BME280;44845;51.444;7.460;2024-03-17T04:46:24;100391.88;;;5.33;77.39
59055;BME280;44845;51.444;7.460;2024-03-17T04:48:51;100385.75;;;5.31;77.70
59055;BME280;44845;51.444;7.460;2024-03-17T04:51:17;100383.97;;;5.29;77.87
59055;BME280;44845;51.444;7.460;2024-03-17T04:53:43;100377.56;;;5.54;77.28
59055;BME280;44845;51.444;7.460;2024-03-17T04:56:08;100383.75;;;5.59;77.09
59055;BME280;44845;51.444;7.460;2024-03-17T04:58:34;100369.03;;;5.61;77.78
59055;BME280;44845;51.444;7.460;2024-03-17T05:01:05;100372.44;;;5.57;77.60
59055;BME280;44845;51.444;7.460;2024-03-17T05:03:31;100361.31;;;5.64;77.41
59055;BME280;44845;51.444;7.460;2024-03-17T05:06:04;100360.59;;;5.71;77.71
59055;BME280;44845;51.444;7.460;2024-03-17T05:08:30;100356.06;;;5.62;77.72
59055;BME280;44845;51.444;7.460;2024-03-17T05:11:00;100355.38;;;5.71;77.31
59055;BME280;44845;51.444;7.460;2024-03-17T05:13:29;100359.59;;;5.66;78.12
59055;BME280;44845;51.444;7.460;2024-03-17T05:15:54;100358.69;;;5.64;78.40
59055;BME280;44845;51.444;7.460;2024-03-17T05:18:20;100354.53;;;5.72;78.42
59055;BME280;44845;51.444;7.460;2024-03-17T05:20:47;100355.44;;;5.74;78.07
59055;BME280;44845;51.444;7.460;2024-03-17T05:23:13;100353.81;;;5.80;78.18
59055;BME280;44845;51.444;7.460;2024-03-17T05:25:39;100357.34;;;5.85;77.85
59055;BME280;44845;51.444;7.460;2024-03-17T05:28:04;100358.00;;;5.73;78.76
59055;BME280;44845;51.444;7.460;2024-03-17T05:30:29;100360.66;;;5.74;78.56
59055;BME280;44845;51.444;7.460;2024-03-17T05:32:55;100362.56;;;5.85;78.37
59055;BME280;44845;51.444;7.460;2024-03-17T05:35:21;100364.25;;;5.83;78.12
59055;BME280;44845;51.444;7.460;2024-03-17T05:37:48;100355.44;;;5.74;78.27
59055;BME280;44845;51.444;7.460;2024-03-17T05:40:14;100350.28;;;5.78;78.86
59055;BME280;44845;51.444;7.460;2024-03-17T05:42:41;100353.00;;;5.82;78.80
59055;BME280;44845;51.444;7.460;2024-03-17T05:45:09;100352.13;;;5.82;79.04
59055;BME280;44845;51.444;7.460;2024-03-17T05:47:37;100353.94;;;5.86;78.97
59055;BME280;44845;51.444;7.460;2024-03-17T05:50:02;100357.34;;;5.85;79.24
59055;BME280;44845;51.444;7.460;2024-03-17T05:52:28;100359.28;;;5.92;78.47
59055;BME280;44845;51.444;7.460;2024-03-17T05:54:53;100351.34;;;5.88;78.84
59055;BME280;44845;51.444;7.460;2024-03-17T05:57:21;100355.47;;;5.78;79.26
59055;BME280;44845;51.444;7.460;2024-03-17T05:59:46;100355.56;;;5.81;79.08
59055;BME280;44845;51.444;7.460;2024-03-17T06:02:12;100350.28;;;5.78;79.50
59055;BME280;44845;51.444;7.460;2024-03-17T06:04:37;100356.47;;;5.83;79.53
59055;BME280;44845;51.444;7.460;2024-03-17T06:07:03;100353.84;;;5.81;80.03
59055;BME280;44845;51.444;7.460;2024-03-17T06:09:29;100359.13;;;5.86;80.19
59055;BME280;44845;51.444;7.460;2024-03-17T06:11:54;100353.19;;;5.93;79.78
59055;BME280;44845;51.444;7.460;2024-03-17T06:14:20;100356.69;;;5.95;79.31
59055;BME280;44845;51.444;7.460;2024-03-17T06:16:46;100356.66;;;5.92;79.95
59055;BME280;44845;51.444;7.460;2024-03-17T06:19:11;100354.06;;;5.92;79.85
59055;BME280;44845;51.444;7.460;2024-03-17T06:21:37;100350.66;;;5.96;79.81
59055;BME280;44845;51.444;7.460;2024-03-17T06:24:04;100357.59;;;5.97;79.55
59055;BME280;44845;51.444;7.460;2024-03-17T06:26:31;100355.97;;;6.03;79.71
59055;BME280;44845;51.444;7.460;2024-03-17T06:28:59;100350.81;;;6.06;79.76
59055;BME280;44845;51.444;7.460;2024-03-17T06:31:24;100348.34;;;6.11;79.33
59055;BME280;44845;51.444;7.460;2024-03-17T06:33:50;100343.19;;;6.14;79.01
59055;BME280;44845;51.444;7.460;2024-03-17T06:36:15;100343.28;;;6.18;79.47
59055;BME280;44845;51.444;7.460;2024-03-17T06:38:41;100344.00;;;6.11;79.46
59055;BME280;44845;51.444;7.460;2024-03-17T06:41:06;100341.59;;;6.22;79.08
59055;BME280;44845;51.444;7.460;2024-03-17T06:43:31;100342.41;;;6.19;79.26
59055;BME280;44845;51.444;7.460;2024-03-17T06:45:59;100339.06;;;6.27;79.46
59055;BME280;44845;51.444;7.460;2024-03-17T06:48:25;100347.75;;;6.26;78.91
59055;BME280;44845;51.444;7.460;2024-03-17T06:50:51;100330.31;;;6.22;79.70
59055;BME280;44845;51.444;7.460;2024-03-17T06:53:18;100334.03;;;6.36;79.47
59055;BME280;44845;51.444;7.460;2024-03-17T06:55:44;100330.63;;;6.40;79.28
59055;BME280;44845;51.444;7.460;2024-03-17T06:58:11;100333.31;;;6.47;78.57
59055;BME280;44845;51.444;7.460;2024-03-17T07:00:36;100331.53;;;6.42;78.75
59055;BME280;44845;51.444;7.460;2024-03-17T07:03:01;100327.41;;;6.57;78.62
59055;BME280;44845;51.444;7.460;2024-03-17T07:05:27;100337.75;;;6.51;78.60
59055;BME280;44845;51.444;7.460;2024-03-17T07:07:55;100338.63;;;6.51;78.61
59055;BME280;44845;51.444;7.460;2024-03-17T07:10:20;100336.88;;;6.52;78.66
59055;BME280;44845;51.444;7.460;2024-03-17T07:12:45;100337.72;;;6.49;78.65
59055;BME280;44845;51.444;7.460;2024-03-17T07:15:11;100326.50;;;6.53;78.40
59055;BME280;44845;51.444;7.460;2024-03-17T07:17:39;100317.94;;;6.62;78.17
59055;BME280;44845;51.444;7.460;2024-03-17T07:20:05;100313.69;;;6.68;77.91
59055;BME280;44845;51.444;7.460;2024-03-17T07:22:33;100298.91;;;6.67;77.40
59055;BME280;44845;51.444;7.460;2024-03-17T07:24:59;100305.16;;;6.78;77.98
59055;BME280;44845;51.444;7.460;2024-03-17T07:27:29;100313.00;;;6.80;77.62
59055;BME280;44845;51.444;7.460;2024-03-17T07:29:55;100306.97;;;6.82;77.47
59055;BME280;44845;51.444;7.460;2024-03-17T07:32:20;100298.31;;;6.86;77.45
59055;BME280;44845;51.444;7.460;2024-03-17T07:34:47;100290.63;;;6.94;77.39
59055;BME280;44845;51.444;7.460;2024-03-17T07:37:14;100298.50;;;6.99;77.70
59055;BME280;44845;51.444;7.460;2024-03-17T07:39:39;100300.34;;;7.08;76.85
59055;BME280;44845;51.444;7.460;2024-03-17T07:42:05;100310.00;;;7.15;77.79
59055;BME280;44845;51.444;7.460;2024-03-17T07:44:31;100311.81;;;7.19;76.21
59055;BME280;44845;51.444;7.460;2024-03-17T07:47:02;100309.34;;;7.30;76.60
59055;BME280;44845;51.444;7.460;2024-03-17T07:49:30;100314.78;;;7.46;76.70
59055;BME280;44845;51.444;7.460;2024-03-17T07:51:56;100313.16;;;7.58;74.66
59055;BME280;44845;51.444;7.460;2024-03-17T07:54:23;100312.34;;;7.62;75.66
59055;BME280;44845;51.444;7.460;2024-03-17T07:56:49;100319.56;;;7.83;74.61
59055;BME280;44845;51.444;7.460;2024-03-17T07:59:14;100322.16;;;7.85;74.37
59055;BME280;44845;51.444;7.460;2024-03-17T08:01:42;100324.06;;;7.98;73.10
59055;BME280;44845;51.444;7.460;2024-03-17T08:04:08;100325.84;;;8.03;72.34
59055;BME280;44845;51.444;7.460;2024-03-17T08:06:33;100315.50;;;8.15;73.62
59055;BME280;44845;51.444;7.460;2024-03-17T08:08:59;100313.91;;;8.30;73.62
59055;BME280;44845;51.444;7.460;2024-03-17T08:11:24;100316.47;;;8.25;73.86
59055;BME280;44845;51.444;7.460;2024-03-17T08:13:50;100311.38;;;8.39;73.31
59055;BME280;44845;51.444;7.460;2024-03-17T08:16:15;100308.78;;;8.45;72.91
59055;BME280;44845;51.444;7.460;2024-03-17T08:18:42;100318.44;;;8.50;73.86
59055;BME280;44845;51.444;7.460;2024-03-17T08:21:07;100312.47;;;8.63;73.30
59055;BME280;44845;51.444;7.460;2024-03-17T08:23:33;100316.00;;;8.72;72.07
59055;BME280;44845;51.444;7.460;2024-03-17T08:26:01;100309.94;;;8.77;70.95
59055;BME280;44845;51.444;7.460;2024-03-17T08:28:27;100312.78;;;9.15;86.43
59055;BME280;44845;51.444;7.460;2024-03-17T08:30:59;100316.41;;;9.41;73.30
59055;BME280;44845;51.444;7.460;2024-03-17T08:33:26;100321.72;;;9.60;69.52
59055;BME280;44845;51.444;7.460;2024-03-17T08:36:02;100321.75;;;9.66;69.49
59055;BME280;44845;51.444;7.460;2024-03-17T08:38:29;100320.88;;;9.61;69.02
59055;BME280;44845;51.444;7.460;2024-03-17T08:40:57;100314.72;;;9.55;68.84
59055;BME280;44845;51.444;7.460;2024-03-17T08:43:23;100308.63;;;9.53;70.08
59055;BME280;44845;51.444;7.460;2024-03-17T08:46:06;100312.06;;;9.46;68.29
59055;BME280;44845;51.444;7.460;2024-03-17T08:48:34;100315.56;;;9.45;68.55
59055;BME280;44845;51.444;7.460;2024-03-17T08:51:01;100319.00;;;9.36;68.84
59055;BME280;44845;51.444;7.460;2024-03-17T08:53:28;100330.41;;;9.46;68.87
59055;BME280;44845;51.444;7.460;2024-03-17T08:55:54;100330.41;;;9.52;68.00
59055;BME280;44845;51.444;7.460;2024-03-17T08:58:19;100333.06;;;9.62;68.92
59055;BME280;44845;51.444;7.460;2024-03-17T09:00:45;100336.56;;;9.64;70.58
59055;BME280;44845;51.444;7.460;2024-03-17T09:03:11;100337.47;;;9.66;70.10
59055;BME280;44845;51.444;7.460;2024-03-17T09:05:37;100341.84;;;9.70;72.01
59055;BME280;44845;51.444;7.460;2024-03-17T09:08:04;100336.63;;;9.75;71.42
59055;BME280;44845;51.444;7.460;2024-03-17T09:10:29;100333.94;;;9.64;70.52
59055;BME280;44845;51.444;7.460;2024-03-17T09:12:54;100333.09;;;9.68;68.75
59055;BME280;44845;51.444;7.460;2024-03-17T09:15:20;100326.16;;;9.78;70.45
59055;BME280;44845;51.444;7.460;2024-03-17T09:17:46;100324.38;;;9.78;67.30
59055;BME280;44845;51.444;7.460;2024-03-17T09:20:12;100326.19;;;9.87;66.40
59055;BME280;44845;51.444;7.460;2024-03-17T09:22:38;100325.28;;;9.93;69.22
59055;BME280;44845;51.444;7.460;2024-03-17T09:25:06;100323.56;;;9.98;70.13
59055;BME280;44845;51.444;7.460;2024-03-17T09:27:32;100314.84;;;9.90;69.91
59055;BME280;44845;51.444;7.460;2024-03-17T09:29:59;100312.25;;;9.98;66.29
59055;BME280;44845;51.444;7.460;2024-03-17T09:32:24;100310.47;;;9.95;66.72
59055;BME280;44845;51.444;7.460;2024-03-17T09:34:50;100307.00;;;10.04;66.41
59055;BME280;44845;51.444;7.460;2024-03-17T09:37:15;100286.91;;;10.11;68.37
59055;BME280;44845;51.444;7.460;2024-03-17T09:39:47;100291.28;;;10.13;68.08
59055;BME280;44845;51.444;7.460;2024-03-17T09:42:17;100286.03;;;10.15;67.05
59055;BME280;44845;51.444;7.460;2024-03-17T09:44:45;100283.44;;;10.12;64.83
59055;BME280;44845;51.444;7.460;2024-03-17T09:47:18;100279.06;;;10.12;64.79
59055;BME280;44845;51.444;7.460;2024-03-17T09:49:43;100286.91;;;10.14;66.40
59055;BME280;44845;51.444;7.460;2024-03-17T09:52:19;100286.91;;;10.23;67.61
59055;BME280;44845;51.444;7.460;2024-03-17T09:54:44;100289.56;;;10.17;67.33
59055;BME280;44845;51.444;7.460;2024-03-17T09:57:17;100292.16;;;10.28;68.34
59055;BME280;44845;51.444;7.460;2024-03-17T09:59:42;100300.03;;;10.17;68.45
59055;BME280;44845;51.444;7.460;2024-03-17T10:02:16;100299.16;;;10.24;65.72
59055;BME280;44845;51.444;7.460;2024-03-17T10:04:43;100295.66;;;10.32;65.92
59055;BME280;44845;51.444;7.460;2024-03-17T10:07:08;100289.53;;;10.33;66.21
59055;BME280;44845;51.444;7.460;2024-03-17T10:09:34;100287.78;;;10.40;67.39
59055;BME280;44845;51.444;7.460;2024-03-17T10:11:59;100293.94;;;10.53;66.53
59055;BME280;44845;51.444;7.460;2024-03-17T10:14:24;100293.94;;;10.59;68.03
59055;BME280;44845;51.444;7.460;2024-03-17T10:16:50;100300.91;;;10.69;67.19
59055;BME280;44845;51.444;7.460;2024-03-17T10:19:23;100283.44;;;10.72;66.80
59055;BME280;44845;51.444;7.460;2024-03-17T10:21:49;100277.28;;;10.77;67.16
59055;BME280;44845;51.444;7.460;2024-03-17T10:24:24;100282.56;;;10.79;66.76
59055;BME280;44845;51.444;7.460;2024-03-17T10:26:55;100286.91;;;10.81;64.51
59055;BME280;44845;51.444;7.460;2024-03-17T10:29:30;100285.16;;;10.88;66.20
59055;BME280;44845;51.444;7.460;2024-03-17T10:32:12;100291.25;;;10.98;65.98
59055;BME280;44845;51.444;7.460;2024-03-17T10:34:38;100299.16;;;10.90;65.64
59055;BME280;44845;51.444;7.460;2024-03-17T10:39:32;100300.84;;;11.04;65.99
59055;BME280;44845;51.444;7.460;2024-03-17T10:42:06;100296.47;;;11.04;65.37
59055;BME280;44845;51.444;7.460;2024-03-17T10:44:34;100299.13;;;10.97;65.44
59055;BME280;44845;51.444;7.460;2024-03-17T10:47:01;100300.00;;;10.92;66.40
59055;BME280;44845;51.444;7.460;2024-03-17T10:49:31;100293.03;;;10.93;66.18
59055;BME280;44845;51.444;7.460;2024-03-17T10:51:59;100287.75;;;10.99;65.33
59055;BME280;44845;51.444;7.460;2024-03-17T10:54:25;100280.75;;;10.97;63.74
59055;BME280;44845;51.444;7.460;2024-03-17T10:59:38;100289.44;;;11.16;64.83
59055;BME280;44845;51.444;7.460;2024-03-17T11:02:22;100288.50;;;11.31;65.82
59055;BME280;44845;51.444;7.460;2024-03-17T11:04:52;100281.50;;;11.36;64.19
59055;BME280;44845;51.444;7.460;2024-03-17T11:07:19;100287.66;;;11.32;63.98
59055;BME280;44845;51.444;7.460;2024-03-17T11:09:45;100295.47;;;11.43;63.23
59055;BME280;44845;51.444;7.460;2024-03-17T11:20:40;100297.09;;;11.74;63.38
59055;BME280;44845;51.444;7.460;2024-03-17T11:23:07;100291.84;;;11.71;64.26
59055;BME280;44845;51.444;7.460;2024-03-17T11:28:04;100290.06;;;11.76;63.25
59055;BME280;44845;51.444;7.460;2024-03-17T11:30:41;100290.00;;;11.86;65.32
59055;BME280;44845;51.444;7.460;2024-03-17T11:39:04;100286.44;;;11.99;63.69
59055;BME280;44845;51.444;7.460;2024-03-17T11:41:49;100283.78;;;12.04;65.28
59055;BME280;44845;51.444;7.460;2024-03-17T11:47:05;100288.16;;;11.97;64.26
59055;BME280;44845;51.444;7.460;2024-03-17T11:49:36;100280.28;;;12.00;63.91
59055;BME280;44845;51.444;7.460;2024-03-17T11:52:09;100282.88;;;12.03;63.23
59055;BME280;44845;51.444;7.460;2024-03-17T11:54:39;100280.25;;;12.03;61.86
59055;BME280;44845;51.444;7.460;2024-03-17T11:59:35;100281.06;;;12.12;63.34
59055;BME280;44845;51.444;7.460;2024-03-17T12:02:02;100281.03;;;12.23;61.89
59055;BME280;44845;51.444;7.460;2024-03-17T12:04:27;100277.53;;;12.19;62.39
59055;BME280;44845;51.444;7.460;2024-03-17T12:06:55;100274.03;;;12.20;60.21
59055;BME280;44845;51.444;7.460;2024-03-17T12:09:29;100267.84;;;12.27;63.81
59055;BME280;44845;51.444;7.460;2024-03-17T12:14:24;100259.16;;;12.18;62.30
59055;BME280;44845;51.444;7.460;2024-03-17T12:16:55;100263.50;;;12.23;64.75
59055;BME280;44845;51.444;7.460;2024-03-17T12:19:21;100255.56;;;12.26;62.44
59055;BME280;44845;51.444;7.460;2024-03-17T12:21:49;100253.91;;;12.14;60.89
59055;BME280;44845;51.444;7.460;2024-03-17T12:24:17;100253.00;;;12.20;61.99
59055;BME280;44845;51.444;7.460;2024-03-17T12:26:44;100251.19;;;12.25;64.41
59055;BME280;44845;51.444;7.460;2024-03-17T12:31:56;100247.56;;;12.39;61.66
59055;BME280;44845;51.444;7.460;2024-03-17T12:34:23;100232.56;;;12.49;63.00
59055;BME280;44845;51.444;7.460;2024-03-17T12:36:50;100237.78;;;12.54;59.96
59055;BME280;44845;51.444;7.460;2024-03-17T12:39:19;100234.28;;;12.55;61.70
59055;BME280;44845;51.444;7.460;2024-03-17T12:41:46;100235.19;;;12.49;62.01
59055;BME280;44845;51.444;7.460;2024-03-17T12:44:25;100223.72;;;12.58;62.63
59055;BME280;44845;51.444;7.460;2024-03-17T12:47:18;100206.94;;;12.68;63.06
59055;BME280;44845;51.444;7.460;2024-03-17T12:49:51;100213.16;;;12.63;62.16
59055;BME280;44845;51.444;7.460;2024-03-17T12:54:43;100203.44;;;12.69;60.70
59055;BME280;44845;51.444;7.460;2024-03-17T12:57:15;100206.03;;;12.71;61.70
59055;BME280;44845;51.444;7.460;2024-03-17T12:59:59;100203.31;;;12.79;64.34
59055;BME280;44845;51.444;7.460;2024-03-17T13:02:45;100196.28;;;12.81;63.89
59055;BME280;44845;51.444;7.460;2024-03-17T13:05:17;100188.47;;;12.75;56.51
59055;BME280;44845;51.444;7.460;2024-03-17T13:07:46;100184.13;;;12.70;57.13
59055;BME280;44845;51.444;7.460;2024-03-17T13:10:18;100182.38;;;12.69;58.63
59055;BME280;44845;51.444;7.460;2024-03-17T13:12:44;100173.66;;;12.64;60.16
59055;BME280;44845;51.444;7.460;2024-03-17T13:15:17;100170.94;;;12.72;61.11
59055;BME280;44845;51.444;7.460;2024-03-17T13:17:45;100168.28;;;12.73;63.55
59055;BME280;44845;51.444;7.460;2024-03-17T13:20:13;100170.03;;;12.75;62.71
59055;BME280;44845;51.444;7.460;2024-03-17T13:22:43;100160.44;;;12.69;62.62
59055;BME280;44845;51.444;7.460;2024-03-17T13:25:20;100157.84;;;12.67;61.34
59055;BME280;44845;51.444;7.460;2024-03-17T13:27:48;100147.31;;;12.67;60.32
59055;BME280;44845;51.444;7.460;2024-03-17T13:30:14;100143.75;;;12.73;62.29
59055;BME280;44845;51.444;7.460;2024-03-17T13:32:40;100154.25;;;12.75;60.00